sensor_id;sensor_type;location;lat;lon;timestamp;temperature;humidity
16160;DHT22;8185;57.818;15.224;2023-07-13T00:00:20;13.50;99.90
16160;DHT22;8185;57.818;15.224;2023-07-13T00:02:48;13.40;99.90
16160;DHT22;8185;57.818;15.224;2023-07-13T00:05:16;13.40;99.90
16160;DHT22;8185;57.818;15.224;2023-07-13T00:07:43;13.40;99.90
16160;DHT22;8185;57.818;15.224;2023-07-13T00:10:12;13.30;99.90
16160;DHT22;8185;57.818;15.224;2023-07-13T00:12:39;13.30;99.90
16160;DHT22;8185;57.818;15.224;2023-07-13T00:15:11;13.30;99.90
16160;DHT22;8185;57.818;15.224;2023-07-13T00:17:40;13.20;99.90
16160;DHT22;8185;57.818;15.224;2023-07-13T00:20:08;13.20;99.90
16160;DHT22;8185;57.818;15.224;2023-07-13T00:22:37;13.20;99.90
16160;DHT22;8185;57.818;15.224;2023-07-13T00:25:05;13.20;99.90
16160;DHT22;8185;57.818;15.224;2023-07-13T00:27:32;13.20;99.90
16160;DHT22;8185;57.818;15.224;2023-07-13T00:30:00;13.10;99.90
16160;DHT22;8185;57.818;15.224;2023-07-13T00:32:29;13.10;99.90
16160;DHT22;8185;57.818;15.224;2023-07-13T00:34:56;13.00;99.90
16160;DHT22;8185;57.818;15.224;2023-07-13T00:37:24;13.00;99.90
16160;DHT22;8185;57.818;15.224;2023-07-13T00:39:52;13.10;99.90
16160;DHT22;8185;57.818;15.224;2023-07-13T00:42:20;13.10;99.90
16160;DHT22;8185;57.818;15.224;2023-07-13T00:46:07;13.10;99.90
16160;DHT22;8185;57.818;15.224;2023-07-13T00:47:57;13.00;99.90
16160;DHT22;8185;57.818;15.224;2023-07-13T00:50:24;13.00;99.90
16160;DHT22;8185;57.818;15.224;2023-07-13T00:52:54;13.00;99.90
16160;DHT22;8185;57.818;15.224;2023-07-13T00:55:25;12.90;99.90
16160;DHT22;8185;57.818;15.224;2023-07-13T00:57:52;12.90;99.90
16160;DHT22;8185;57.818;15.224;2023-07-13T01:00:21;12.80;99.90
16160;DHT22;8185;57.818;15.224;2023-07-13T01:02:49;12.90;99.90
16160;DHT22;8185;57.818;15.224;2023-07-13T01:05:18;12.90;99.90
16160;DHT22;8185;57.818;15.224;2023-07-13T01:07:48;12.90;99.90
16160;DHT22;8185;57.818;15.224;2023-07-13T01:10:20;12.90;99.90
16160;DHT22;8185;57.818;15.224;2023-07-13T01:12:49;12.90;99.90
16160;DHT22;8185;57.818;15.224;2023-07-13T01:15:35;12.90;99.90
16160;DHT22;8185;57.818;15.224;2023-07-13T01:18:04;12.80;99.90
16160;DHT22;8185;57.818;15.224;2023-07-13T01:20:31;12.80;99.90
16160;DHT22;8185;57.818;15.224;2023-07-13T01:23:04;12.80;99.90
16160;DHT22;8185;57.818;15.224;2023-07-13T01:25:32;12.80;99.90
16160;DHT22;8185;57.818;15.224;2023-07-13T01:27:59;12.70;99.90
16160;DHT22;8185;57.818;15.224;2023-07-13T01:30:26;12.80;99.90
16160;DHT22;8185;57.818;15.224;2023-07-13T01:32:53;12.70;99.90
16160;DHT22;8185;57.818;15.224;2023-07-13T01:35:20;12.60;99.90
16160;DHT22;8185;57.818;15.224;2023-07-13T01:37:47;12.60;99.90
16160;DHT22;8185;57.818;15.224;2023-07-13T01:40:16;12.60;99.90
16160;DHT22;8185;57.818;15.224;2023-07-13T01:42:43;12.60;99.90
16160;DHT22;8185;57.818;15.224;2023-07-13T01:45:10;12.50;99.90
16160;DHT22;8185;57.818;15.224;2023-07-13T01:47:38;12.50;99.90
16160;DHT22;8185;57.818;15.224;2023-07-13T01:50:05;12.40;99.90
16160;DHT22;8185;57.818;15.224;2023-07-13T01:52:32;12.40;99.90
16160;DHT22;8185;57.818;15.224;2023-07-13T01:55:00;12.40;99.90
16160;DHT22;8185;57.818;15.224;2023-07-13T01:57:29;12.40;99.90
16160;DHT22;8185;57.818;15.224;2023-07-13T01:59:56;12.40;99.90
16160;DHT22;8185;57.818;15.224;2023-07-13T02:02:23;12.40;99.90
16160;DHT22;8185;57.818;15.224;2023-07-13T02:04:51;12.30;99.90
16160;DHT22;8185;57.818;15.224;2023-07-13T02:07:18;12.30;99.90
16160;DHT22;8185;57.818;15.224;2023-07-13T02:09:45;12.30;99.90
16160;DHT22;8185;57.818;15.224;2023-07-13T02:12:12;12.30;99.90
16160;DHT22;8185;57.818;15.224;2023-07-13T02:14:41;12.20;99.90
16160;DHT22;8185;57.818;15.224;2023-07-13T02:17:10;12.20;99.90
16160;DHT22;8185;57.818;15.224;2023-07-13T02:19:37;12.20;99.90
16160;DHT22;8185;57.818;15.224;2023-07-13T02:22:04;12.20;99.90
16160;DHT22;8185;57.818;15.224;2023-07-13T02:24:32;12.20;99.90
16160;DHT22;8185;57.818;15.224;2023-07-13T02:26:59;12.20;99.90
16160;DHT22;8185;57.818;15.224;2023-07-13T02:29:26;12.20;99.90
16160;DHT22;8185;57.818;15.224;2023-07-13T02:31:55;12.10;99.90
16160;DHT22;8185;57.818;15.224;2023-07-13T02:34:22;12.10;99.90
16160;DHT22;8185;57.818;15.224;2023-07-13T02:36:49;12.10;99.90
16160;DHT22;8185;57.818;15.224;2023-07-13T02:39:17;12.10;99.90
16160;DHT22;8185;57.818;15.224;2023-07-13T02:41:44;12.00;99.90
16160;DHT22;8185;57.818;15.224;2023-07-13T02:44:12;12.10;99.90
16160;DHT22;8185;57.818;15.224;2023-07-13T02:46:39;12.00;99.90
16160;DHT22;8185;57.818;15.224;2023-07-13T02:49:08;12.00;99.90
16160;DHT22;8185;57.818;15.224;2023-07-13T02:51:35;11.90;99.90
16160;DHT22;8185;57.818;15.224;2023-07-13T02:54:03;12.00;99.90
16160;DHT22;8185;57.818;15.224;2023-07-13T02:56:31;12.10;99.90
16160;DHT22;8185;57.818;15.224;2023-07-13T02:58:59;12.10;99.90
16160;DHT22;8185;57.818;15.224;2023-07-13T03:01:26;12.00;99.90
16160;DHT22;8185;57.818;15.224;2023-07-13T03:03:53;12.10;99.90
16160;DHT22;8185;57.818;15.224;2023-07-13T03:06:23;12.00;99.90
16160;DHT22;8185;57.818;15.224;2023-07-13T03:08:50;12.00;99.90
16160;DHT22;8185;57.818;15.224;2023-07-13T03:11:19;12.10;99.90
16160;DHT22;8185;57.818;15.224;2023-07-13T03:13:46;12.00;99.90
16160;DHT22;8185;57.818;15.224;2023-07-13T03:16:14;12.10;99.90
16160;DHT22;8185;57.818;15.224;2023-07-13T03:18:42;12.10;99.90
16160;DHT22;8185;57.818;15.224;2023-07-13T03:21:10;12.10;99.90
16160;DHT22;8185;57.818;15.224;2023-07-13T03:23:39;12.10;99.90
16160;DHT22;8185;57.818;15.224;2023-07-13T03:26:08;12.20;99.90
16160;DHT22;8185;57.818;15.224;2023-07-13T03:28:35;12.20;99.90
16160;DHT22;8185;57.818;15.224;2023-07-13T03:31:05;12.30;99.90
16160;DHT22;8185;57.818;15.224;2023-07-13T03:33:33;12.20;99.90
16160;DHT22;8185;57.818;15.224;2023-07-13T03:36:00;12.30;99.90
16160;DHT22;8185;57.818;15.224;2023-07-13T03:38:27;12.30;99.90
16160;DHT22;8185;57.818;15.224;2023-07-13T03:40:55;12.30;99.90
16160;DHT22;8185;57.818;15.224;2023-07-13T03:43:23;12.30;99.90
16160;DHT22;8185;57.818;15.224;2023-07-13T03:45:50;12.40;99.90
16160;DHT22;8185;57.818;15.224;2023-07-13T03:48:17;12.50;99.90
16160;DHT22;8185;57.818;15.224;2023-07-13T03:50:44;12.50;99.90
16160;DHT22;8185;57.818;15.224;2023-07-13T03:53:11;12.50;99.90
16160;DHT22;8185;57.818;15.224;2023-07-13T03:55:38;12.50;99.90
16160;DHT22;8185;57.818;15.224;2023-07-13T03:58:28;12.60;99.90
16160;DHT22;8185;57.818;15.224;2023-07-13T04:00:56;12.60;99.90
16160;DHT22;8185;57.818;15.224;2023-07-13T04:03:24;12.70;99.90
16160;DHT22;8185;57.818;15.224;2023-07-13T04:05:54;12.70;99.90
16160;DHT22;8185;57.818;15.224;2023-07-13T04:08:26;12.80;99.90
16160;DHT22;8185;57.818;15.224;2023-07-13T04:10:53;12.90;99.90
16160;DHT22;8185;57.818;15.224;2023-07-13T04:13:21;12.90;99.90
16160;DHT22;8185;57.818;15.224;2023-07-13T04:15:49;13.00;99.90
16160;DHT22;8185;57.818;15.224;2023-07-13T04:18:16;13.00;99.90
16160;DHT22;8185;57.818;15.224;2023-07-13T04:20:45;13.10;99.90
16160;DHT22;8185;57.818;15.224;2023-07-13T04:23:13;13.10;99.90
16160;DHT22;8185;57.818;15.224;2023-07-13T04:25:43;13.20;99.90
16160;DHT22;8185;57.818;15.224;2023-07-13T04:28:11;13.30;99.90
16160;DHT22;8185;57.818;15.224;2023-07-13T04:30:38;13.40;99.90
16160;DHT22;8185;57.818;15.224;2023-07-13T04:33:07;13.40;99.90
16160;DHT22;8185;57.818;15.224;2023-07-13T04:35:35;13.50;99.90
16160;DHT22;8185;57.818;15.224;2023-07-13T04:38:03;13.50;99.90
16160;DHT22;8185;57.818;15.224;2023-07-13T04:40:30;13.50;99.90
16160;DHT22;8185;57.818;15.224;2023-07-13T04:42:57;13.60;99.90
16160;DHT22;8185;57.818;15.224;2023-07-13T04:45:24;13.70;99.90
16160;DHT22;8185;57.818;15.224;2023-07-13T04:47:52;13.80;99.90
16160;DHT22;8185;57.818;15.224;2023-07-13T04:50:20;13.90;99.90
16160;DHT22;8185;57.818;15.224;2023-07-13T04:52:49;14.00;99.90
16160;DHT22;8185;57.818;15.224;2023-07-13T04:55:17;14.00;99.90
16160;DHT22;8185;57.818;15.224;2023-07-13T04:57:45;14.00;99.90
16160;DHT22;8185;57.818;15.224;2023-07-13T05:00:13;14.10;99.90
16160;DHT22;8185;57.818;15.224;2023-07-13T05:02:43;14.10;99.90
16160;DHT22;8185;57.818;15.224;2023-07-13T05:05:10;14.10;99.90
16160;DHT22;8185;57.818;15.224;2023-07-13T05:07:39;14.20;99.90
16160;DHT22;8185;57.818;15.224;2023-07-13T05:10:07;14.20;99.90
16160;DHT22;8185;57.818;15.224;2023-07-13T05:12:34;14.10;99.90
16160;DHT22;8185;57.818;15.224;2023-07-13T05:15:02;14.10;99.90
16160;DHT22;8185;57.818;15.224;2023-07-13T05:17:29;14.10;99.90
16160;DHT22;8185;57.818;15.224;2023-07-13T05:19:56;14.20;99.90
16160;DHT22;8185;57.818;15.224;2023-07-13T05:22:23;14.20;99.90
16160;DHT22;8185;57.818;15.224;2023-07-13T05:24:52;14.20;99.90
16160;DHT22;8185;57.818;15.224;2023-07-13T05:27:19;14.30;99.90
16160;DHT22;8185;57.818;15.224;2023-07-13T05:29:46;14.40;99.90
16160;DHT22;8185;57.818;15.224;2023-07-13T05:32:14;14.50;99.90
16160;DHT22;8185;57.818;15.224;2023-07-13T05:34:41;14.60;99.90
16160;DHT22;8185;57.818;15.224;2023-07-13T05:37:08;14.90;99.90
16160;DHT22;8185;57.818;15.224;2023-07-13T05:39:35;14.90;99.90
16160;DHT22;8185;57.818;15.224;2023-07-13T05:42:04;14.90;99.90
16160;DHT22;8185;57.818;15.224;2023-07-13T05:44:31;15.10;99.90
16160;DHT22;8185;57.818;15.224;2023-07-13T05:46:58;15.00;99.90
16160;DHT22;8185;57.818;15.224;2023-07-13T05:49:26;15.00;99.90
16160;DHT22;8185;57.818;15.224;2023-07-13T05:51:53;14.90;99.90
16160;DHT22;8185;57.818;15.224;2023-07-13T05:54:20;14.80;99.90
16160;DHT22;8185;57.818;15.224;2023-07-13T05:56:47;14.80;99.90
16160;DHT22;8185;57.818;15.224;2023-07-13T05:59:16;14.60;99.90
16160;DHT22;8185;57.818;15.224;2023-07-13T06:01:44;14.60;99.90
16160;DHT22;8185;57.818;15.224;2023-07-13T06:04:11;14.50;99.90
16160;DHT22;8185;57.818;15.224;2023-07-13T06:06:38;14.40;99.90
16160;DHT22;8185;57.818;15.224;2023-07-13T06:09:05;14.40;99.90
16160;DHT22;8185;57.818;15.224;2023-07-13T06:11:32;14.60;99.90
16160;DHT22;8185;57.818;15.224;2023-07-13T06:14:01;14.60;99.90
16160;DHT22;8185;57.818;15.224;2023-07-13T06:16:31;14.70;99.90
16160;DHT22;8185;57.818;15.224;2023-07-13T06:18:58;14.80;99.90
16160;DHT22;8185;57.818;15.224;2023-07-13T06:21:25;14.90;99.90
16160;DHT22;8185;57.818;15.224;2023-07-13T06:23:52;14.80;99.90
16160;DHT22;8185;57.818;15.224;2023-07-13T06:26:20;15.00;99.90
16160;DHT22;8185;57.818;15.224;2023-07-13T06:28:47;15.10;99.90
16160;DHT22;8185;57.818;15.224;2023-07-13T06:31:15;15.20;99.90
16160;DHT22;8185;57.818;15.224;2023-07-13T06:33:44;15.30;99.90
16160;DHT22;8185;57.818;15.224;2023-07-13T06:36:11;15.30;99.90
16160;DHT22;8185;57.818;15.224;2023-07-13T06:38:38;15.40;99.90
16160;DHT22;8185;57.818;15.224;2023-07-13T06:41:06;15.60;99.90
16160;DHT22;8185;57.818;15.224;2023-07-13T06:43:34;15.60;99.90
16160;DHT22;8185;57.818;15.224;2023-07-13T06:46:01;15.70;99.90
16160;DHT22;8185;57.818;15.224;2023-07-13T06:48:29;15.60;99.90
16160;DHT22;8185;57.818;15.224;2023-07-13T06:50:57;15.60;99.90
16160;DHT22;8185;57.818;15.224;2023-07-13T06:53:24;15.50;99.90
16160;DHT22;8185;57.818;15.224;2023-07-13T06:55:52;15.40;99.90
16160;DHT22;8185;57.818;15.224;2023-07-13T06:58:19;15.10;99.90
16160;DHT22;8185;57.818;15.224;2023-07-13T07:00:50;14.90;99.90
16160;DHT22;8185;57.818;15.224;2023-07-13T07:03:17;15.10;99.90
16160;DHT22;8185;57.818;15.224;2023-07-13T07:05:44;15.40;99.90
16160;DHT22;8185;57.818;15.224;2023-07-13T07:08:13;15.70;99.90
16160;DHT22;8185;57.818;15.224;2023-07-13T07:10:40;15.70;99.90
16160;DHT22;8185;57.818;15.224;2023-07-13T07:13:08;15.90;99.90
16160;DHT22;8185;57.818;15.224;2023-07-13T07:15:35;16.00;99.90
16160;DHT22;8185;57.818;15.224;2023-07-13T07:18:03;16.00;99.90
16160;DHT22;8185;57.818;15.224;2023-07-13T07:20:30;16.20;99.90
16160;DHT22;8185;57.818;15.224;2023-07-13T07:22:58;16.50;99.90
16160;DHT22;8185;57.818;15.224;2023-07-13T07:25:27;16.70;99.90
16160;DHT22;8185;57.818;15.224;2023-07-13T07:27:57;16.50;99.90
16160;DHT22;8185;57.818;15.224;2023-07-13T07:30:25;16.30;99.90
16160;DHT22;8185;57.818;15.224;2023-07-13T07:32:52;16.40;99.90
16160;DHT22;8185;57.818;15.224;2023-07-13T07:35:19;16.50;99.90
16160;DHT22;8185;57.818;15.224;2023-07-13T07:37:46;16.50;99.90
16160;DHT22;8185;57.818;15.224;2023-07-13T07:40:14;16.50;99.90
16160;DHT22;8185;57.818;15.224;2023-07-13T07:42:43;16.30;99.90
16160;DHT22;8185;57.818;15.224;2023-07-13T07:45:10;16.40;99.90
16160;DHT22;8185;57.818;15.224;2023-07-13T07:47:37;16.60;99.90
16160;DHT22;8185;57.818;15.224;2023-07-13T07:50:05;16.80;99.90
16160;DHT22;8185;57.818;15.224;2023-07-13T07:52:33;17.00;99.90
16160;DHT22;8185;57.818;15.224;2023-07-13T07:55:00;17.30;99.90
16160;DHT22;8185;57.818;15.224;2023-07-13T07:57:27;17.10;99.90
16160;DHT22;8185;57.818;15.224;2023-07-13T07:59:56;16.90;99.90
16160;DHT22;8185;57.818;15.224;2023-07-13T08:02:24;16.70;99.90
16160;DHT22;8185;57.818;15.224;2023-07-13T08:04:51;16.50;99.90
16160;DHT22;8185;57.818;15.224;2023-07-13T08:07:18;16.50;99.90
16160;DHT22;8185;57.818;15.224;2023-07-13T08:09:46;16.60;99.90
16160;DHT22;8185;57.818;15.224;2023-07-13T08:12:13;17.00;99.90
16160;DHT22;8185;57.818;15.224;2023-07-13T08:14:41;17.30;99.90
16160;DHT22;8185;57.818;15.224;2023-07-13T08:17:11;17.60;99.90
16160;DHT22;8185;57.818;15.224;2023-07-13T08:19:38;17.80;99.90
16160;DHT22;8185;57.818;15.224;2023-07-13T08:22:06;17.40;99.90
16160;DHT22;8185;57.818;15.224;2023-07-13T08:24:33;17.50;99.90
16160;DHT22;8185;57.818;15.224;2023-07-13T08:27:00;17.40;99.90
16160;DHT22;8185;57.818;15.224;2023-07-13T08:29:27;17.50;99.90
16160;DHT22;8185;57.818;15.224;2023-07-13T08:31:57;17.50;99.90
16160;DHT22;8185;57.818;15.224;2023-07-13T08:34:26;17.90;99.90
16160;DHT22;8185;57.818;15.224;2023-07-13T08:36:53;17.70;99.90
16160;DHT22;8185;57.818;15.224;2023-07-13T08:39:21;17.60;99.90
16160;DHT22;8185;57.818;15.224;2023-07-13T08:41:50;17.70;99.90
16160;DHT22;8185;57.818;15.224;2023-07-13T08:47:03;17.40;99.90
16160;DHT22;8185;57.818;15.224;2023-07-13T08:49:33;17.60;99.90
16160;DHT22;8185;57.818;15.224;2023-07-13T08:52:05;17.60;99.90
16160;DHT22;8185;57.818;15.224;2023-07-13T08:54:37;17.80;99.90
16160;DHT22;8185;57.818;15.224;2023-07-13T08:57:12;17.70;99.90
16160;DHT22;8185;57.818;15.224;2023-07-13T08:59:39;17.90;99.90
16160;DHT22;8185;57.818;15.224;2023-07-13T09:02:20;18.10;99.90
16160;DHT22;8185;57.818;15.224;2023-07-13T09:04:55;18.40;99.90
16160;DHT22;8185;57.818;15.224;2023-07-13T09:07:37;18.30;99.90
16160;DHT22;8185;57.818;15.224;2023-07-13T09:10:14;17.80;99.90
16160;DHT22;8185;57.818;15.224;2023-07-13T09:12:50;17.70;99.90
16160;DHT22;8185;57.818;15.224;2023-07-13T09:15:24;17.60;99.90
16160;DHT22;8185;57.818;15.224;2023-07-13T09:17:54;18.10;99.90
16160;DHT22;8185;57.818;15.224;2023-07-13T09:20:28;18.00;99.90
16160;DHT22;8185;57.818;15.224;2023-07-13T09:22:56;18.30;99.90
16160;DHT22;8185;57.818;15.224;2023-07-13T09:25:30;18.60;99.90
16160;DHT22;8185;57.818;15.224;2023-07-13T09:28:00;18.90;99.90
16160;DHT22;8185;57.818;15.224;2023-07-13T09:30:34;19.50;99.90
16160;DHT22;8185;57.818;15.224;2023-07-13T09:33:04;19.60;99.90
16160;DHT22;8185;57.818;15.224;2023-07-13T09:35:34;19.00;99.90
16160;DHT22;8185;57.818;15.224;2023-07-13T09:38:11;18.50;99.90
16160;DHT22;8185;57.818;15.224;2023-07-13T09:40:46;18.20;99.90
16160;DHT22;8185;57.818;15.224;2023-07-13T09:43:17;18.20;99.90
16160;DHT22;8185;57.818;15.224;2023-07-13T09:45:47;18.00;99.90
16160;DHT22;8185;57.818;15.224;2023-07-13T09:48:16;17.90;99.90
16160;DHT22;8185;57.818;15.224;2023-07-13T09:50:45;17.70;99.90
16160;DHT22;8185;57.818;15.224;2023-07-13T09:53:14;17.40;99.90
16160;DHT22;8185;57.818;15.224;2023-07-13T09:55:43;17.20;99.90
16160;DHT22;8185;57.818;15.224;2023-07-13T09:58:13;16.90;99.90
16160;DHT22;8185;57.818;15.224;2023-07-13T10:00:42;16.90;99.90
16160;DHT22;8185;57.818;15.224;2023-07-13T10:03:18;17.40;99.90
16160;DHT22;8185;57.818;15.224;2023-07-13T10:05:50;17.90;99.90
16160;DHT22;8185;57.818;15.224;2023-07-13T10:08:21;17.60;99.90
16160;DHT22;8185;57.818;15.224;2023-07-13T10:10:53;17.60;99.90
16160;DHT22;8185;57.818;15.224;2023-07-13T10:13:35;17.60;99.90
16160;DHT22;8185;57.818;15.224;2023-07-13T10:16:04;17.20;99.90
16160;DHT22;8185;57.818;15.224;2023-07-13T10:18:39;17.40;99.90
16160;DHT22;8185;57.818;15.224;2023-07-13T10:21:16;17.50;99.90
16160;DHT22;8185;57.818;15.224;2023-07-13T10:23:46;18.10;99.90
16160;DHT22;8185;57.818;15.224;2023-07-13T10:26:18;18.70;99.90
16160;DHT22;8185;57.818;15.224;2023-07-13T10:28:51;18.90;99.90
16160;DHT22;8185;57.818;15.224;2023-07-13T10:31:21;19.10;99.90
16160;DHT22;8185;57.818;15.224;2023-07-13T10:33:49;19.60;99.90
16160;DHT22;8185;57.818;15.224;2023-07-13T10:36:30;19.20;99.90
16160;DHT22;8185;57.818;15.224;2023-07-13T10:39:02;19.50;99.90
16160;DHT22;8185;57.818;15.224;2023-07-13T10:41:32;19.40;99.90
16160;DHT22;8185;57.818;15.224;2023-07-13T10:44:01;19.50;99.90
16160;DHT22;8185;57.818;15.224;2023-07-13T10:46:29;20.00;99.90
16160;DHT22;8185;57.818;15.224;2023-07-13T10:48:59;20.40;99.90
16160;DHT22;8185;57.818;15.224;2023-07-13T10:51:30;20.70;99.90
16160;DHT22;8185;57.818;15.224;2023-07-13T10:54:18;20.70;99.90
16160;DHT22;8185;57.818;15.224;2023-07-13T10:56:50;21.30;99.90
16160;DHT22;8185;57.818;15.224;2023-07-13T10:59:20;21.90;99.90
16160;DHT22;8185;57.818;15.224;2023-07-13T11:01:55;22.30;99.90
16160;DHT22;8185;57.818;15.224;2023-07-13T11:04:24;21.30;99.90
16160;DHT22;8185;57.818;15.224;2023-07-13T11:06:57;21.00;99.90
16160;DHT22;8185;57.818;15.224;2023-07-13T11:09:38;20.40;99.90
16160;DHT22;8185;57.818;15.224;2023-07-13T11:12:27;19.80;99.90
16160;DHT22;8185;57.818;15.224;2023-07-13T11:15:10;19.40;99.90
16160;DHT22;8185;57.818;15.224;2023-07-13T11:17:48;18.90;99.90
16160;DHT22;8185;57.818;15.224;2023-07-13T11:20:32;18.60;99.90
16160;DHT22;8185;57.818;15.224;2023-07-13T11:23:20;19.00;99.90
16160;DHT22;8185;57.818;15.224;2023-07-13T11:25:53;19.20;99.90
16160;DHT22;8185;57.818;15.224;2023-07-13T11:28:25;18.50;99.90
16160;DHT22;8185;57.818;15.224;2023-07-13T11:31:02;18.30;99.90
16160;DHT22;8185;57.818;15.224;2023-07-13T11:33:51;18.30;99.90
16160;DHT22;8185;57.818;15.224;2023-07-13T11:36:21;18.10;99.90
16160;DHT22;8185;57.818;15.224;2023-07-13T11:39:01;18.10;99.90
16160;DHT22;8185;57.818;15.224;2023-07-13T11:41:32;18.10;99.90
16160;DHT22;8185;57.818;15.224;2023-07-13T11:44:11;18.10;99.90
16160;DHT22;8185;57.818;15.224;2023-07-13T11:46:38;18.40;99.90
16160;DHT22;8185;57.818;15.224;2023-07-13T11:49:05;18.70;99.90
16160;DHT22;8185;57.818;15.224;2023-07-13T11:51:35;18.90;99.90
16160;DHT22;8185;57.818;15.224;2023-07-13T11:54:06;18.80;99.90
16160;DHT22;8185;57.818;15.224;2023-07-13T11:56:38;18.50;99.90
16160;DHT22;8185;57.818;15.224;2023-07-13T11:59:07;18.40;99.90
16160;DHT22;8185;57.818;15.224;2023-07-13T12:01:37;18.20;99.90
16160;DHT22;8185;57.818;15.224;2023-07-13T12:04:18;18.00;99.90
16160;DHT22;8185;57.818;15.224;2023-07-13T12:06:47;17.90;99.90
16160;DHT22;8185;57.818;15.224;2023-07-13T12:09:21;17.80;99.90
16160;DHT22;8185;57.818;15.224;2023-07-13T12:11:51;17.80;99.90
16160;DHT22;8185;57.818;15.224;2023-07-13T12:14:18;17.90;99.90
16160;DHT22;8185;57.818;15.224;2023-07-13T12:16:47;18.00;99.90
16160;DHT22;8185;57.818;15.224;2023-07-13T12:19:18;17.90;99.90
16160;DHT22;8185;57.818;15.224;2023-07-13T12:21:47;17.80;99.90
16160;DHT22;8185;57.818;15.224;2023-07-13T12:24:16;17.70;99.90
16160;DHT22;8185;57.818;15.224;2023-07-13T12:26:50;18.90;99.90
16160;DHT22;8185;57.818;15.224;2023-07-13T12:29:18;20.80;99.90
16160;DHT22;8185;57.818;15.224;2023-07-13T12:31:47;21.20;99.90
16160;DHT22;8185;57.818;15.224;2023-07-13T12:34:16;21.30;99.90
16160;DHT22;8185;57.818;15.224;2023-07-13T12:36:47;21.90;99.90
16160;DHT22;8185;57.818;15.224;2023-07-13T12:39:17;22.80;99.90
16160;DHT22;8185;57.818;15.224;2023-07-13T12:41:48;22.50;99.90
16160;DHT22;8185;57.818;15.224;2023-07-13T12:44:17;22.30;99.90
16160;DHT22;8185;57.818;15.224;2023-07-13T12:46:53;23.50;99.90
16160;DHT22;8185;57.818;15.224;2023-07-13T12:49:26;22.50;99.90
16160;DHT22;8185;57.818;15.224;2023-07-13T12:51:59;21.50;99.90
16160;DHT22;8185;57.818;15.224;2023-07-13T12:54:27;20.90;99.90
16160;DHT22;8185;57.818;15.224;2023-07-13T12:56:57;19.80;99.90
16160;DHT22;8185;57.818;15.224;2023-07-13T12:59:32;18.70;99.90
16160;DHT22;8185;57.818;15.224;2023-07-13T13:02:25;20.00;99.90
16160;DHT22;8185;57.818;15.224;2023-07-13T13:04:55;21.00;99.90
16160;DHT22;8185;57.818;15.224;2023-07-13T13:07:23;22.20;99.90
16160;DHT22;8185;57.818;15.224;2023-07-13T13:09:51;22.20;99.90
16160;DHT22;8185;57.818;15.224;2023-07-13T13:12:20;23.00;99.90
16160;DHT22;8185;57.818;15.224;2023-07-13T13:14:47;23.70;99.90
16160;DHT22;8185;57.818;15.224;2023-07-13T13:17:19;23.40;99.90
16160;DHT22;8185;57.818;15.224;2023-07-13T13:19:47;23.40;99.90
16160;DHT22;8185;57.818;15.224;2023-07-13T13:22:15;23.00;99.90
16160;DHT22;8185;57.818;15.224;2023-07-13T13:24:43;22.40;99.90
16160;DHT22;8185;57.818;15.224;2023-07-13T13:27:15;21.40;99.90
16160;DHT22;8185;57.818;15.224;2023-07-13T13:29:45;21.40;99.90
16160;DHT22;8185;57.818;15.224;2023-07-13T13:32:14;20.90;99.90
16160;DHT22;8185;57.818;15.224;2023-07-13T13:34:42;20.90;99.90
16160;DHT22;8185;57.818;15.224;2023-07-13T13:37:18;20.40;99.90
16160;DHT22;8185;57.818;15.224;2023-07-13T13:39:47;20.10;99.90
16160;DHT22;8185;57.818;15.224;2023-07-13T13:42:15;20.10;99.90
16160;DHT22;8185;57.818;15.224;2023-07-13T13:44:43;20.20;99.90
16160;DHT22;8185;57.818;15.224;2023-07-13T13:47:26;20.20;99.90
16160;DHT22;8185;57.818;15.224;2023-07-13T13:49:53;20.10;99.90
16160;DHT22;8185;57.818;15.224;2023-07-13T13:52:20;20.30;99.90
16160;DHT22;8185;57.818;15.224;2023-07-13T13:54:48;20.10;99.90
16160;DHT22;8185;57.818;15.224;2023-07-13T13:57:15;20.00;99.90
16160;DHT22;8185;57.818;15.224;2023-07-13T13:59:44;21.80;99.90
16160;DHT22;8185;57.818;15.224;2023-07-13T14:02:23;23.80;99.90
16160;DHT22;8185;57.818;15.224;2023-07-13T14:04:55;23.40;99.90
16160;DHT22;8185;57.818;15.224;2023-07-13T14:07:23;23.40;99.90
16160;DHT22;8185;57.818;15.224;2023-07-13T14:09:52;23.90;99.90
16160;DHT22;8185;57.818;15.224;2023-07-13T14:12:20;22.90;99.90
16160;DHT22;8185;57.818;15.224;2023-07-13T14:14:49;23.00;99.90
16160;DHT22;8185;57.818;15.224;2023-07-13T14:17:20;22.70;99.90
16160;DHT22;8185;57.818;15.224;2023-07-13T14:19:48;22.40;99.90
16160;DHT22;8185;57.818;15.224;2023-07-13T14:22:23;23.00;99.90
16160;DHT22;8185;57.818;15.224;2023-07-13T14:24:51;23.20;99.90
16160;DHT22;8185;57.818;15.224;2023-07-13T14:27:19;23.00;99.90
16160;DHT22;8185;57.818;15.224;2023-07-13T14:29:46;23.50;99.90
16160;DHT22;8185;57.818;15.224;2023-07-13T14:32:15;22.90;99.90
16160;DHT22;8185;57.818;15.224;2023-07-13T14:34:42;22.00;99.90
16160;DHT22;8185;57.818;15.224;2023-07-13T14:37:13;22.40;99.90
16160;DHT22;8185;57.818;15.224;2023-07-13T14:39:44;23.60;99.90
16160;DHT22;8185;57.818;15.224;2023-07-13T14:42:11;24.60;99.90
16160;DHT22;8185;57.818;15.224;2023-07-13T14:44:39;25.10;99.90
16160;DHT22;8185;57.818;15.224;2023-07-13T14:47:07;25.50;99.90
16160;DHT22;8185;57.818;15.224;2023-07-13T14:49:38;24.80;99.90
16160;DHT22;8185;57.818;15.224;2023-07-13T14:52:12;23.30;99.90
16160;DHT22;8185;57.818;15.224;2023-07-13T14:54:39;22.10;99.90
16160;DHT22;8185;57.818;15.224;2023-07-13T14:57:10;21.60;99.90
16160;DHT22;8185;57.818;15.224;2023-07-13T14:59:38;21.70;99.90
16160;DHT22;8185;57.818;15.224;2023-07-13T15:02:15;21.80;99.90
16160;DHT22;8185;57.818;15.224;2023-07-13T15:04:44;23.70;99.90
16160;DHT22;8185;57.818;15.224;2023-07-13T15:07:12;23.20;99.90
16160;DHT22;8185;57.818;15.224;2023-07-13T15:09:41;22.00;99.90
16160;DHT22;8185;57.818;15.224;2023-07-13T15:12:09;21.00;99.90
16160;DHT22;8185;57.818;15.224;2023-07-13T15:14:36;21.70;99.90
16160;DHT22;8185;57.818;15.224;2023-07-13T15:17:04;22.20;99.90
16160;DHT22;8185;57.818;15.224;2023-07-13T15:19:34;22.60;99.90
16160;DHT22;8185;57.818;15.224;2023-07-13T15:22:03;22.00;99.90
16160;DHT22;8185;57.818;15.224;2023-07-13T15:24:31;21.40;99.90
16160;DHT22;8185;57.818;15.224;2023-07-13T15:26:58;20.80;99.90
16160;DHT22;8185;57.818;15.224;2023-07-13T15:29:26;20.50;99.90
16160;DHT22;8185;57.818;15.224;2023-07-13T15:31:53;20.60;99.90
16160;DHT22;8185;57.818;15.224;2023-07-13T15:34:24;21.50;99.90
16160;DHT22;8185;57.818;15.224;2023-07-13T15:36:52;21.60;99.90
16160;DHT22;8185;57.818;15.224;2023-07-13T15:39:21;20.80;99.90
16160;DHT22;8185;57.818;15.224;2023-07-13T15:41:50;20.70;99.90
16160;DHT22;8185;57.818;15.224;2023-07-13T15:44:26;20.20;99.90
16160;DHT22;8185;57.818;15.224;2023-07-13T15:46:55;20.10;99.90